Time;durP1;ratioP1;P1;durP2;ratioP2;P2;SDS_P1;SDS_P2;PMS_P1;PMS_P2;Temp;Humidity;BMP_temperature;BMP_pressure;BME280_temperature;BME280_humidity;BME280_pressure;Samples;Min_cycle;Max_cycle;Signal;HPM_P1;HPM_P2
2022/10/09 00:01:20;;;;;;;5.80;2.42;;;6.60;99.90;;;;;;5072807;28;20051;-71
2022/10/09 00:03:48;;;;;;;8.23;2.85;;;6.70;99.90;;;;;;5066102;28;20047;-72
2022/10/09 00:06:17;;;;;;;5.75;2.80;;;6.70;99.90;;;;;;5059442;28;20043;-71
2022/10/09 00:08:43;;;;;;;8.13;3.00;;;6.70;99.90;;;;;;5068988;28;20043;-72
2022/10/09 00:11:20;;;;;;;6.38;2.85;;;6.60;99.90;;;;;;5072778;28;20048;-72
2022/10/09 00:13:46;;;;;;;7.78;2.55;;;6.60;99.90;;;;;;5067598;28;20473;-73
2022/10/09 00:16:14;;;;;;;8.43;3.15;;;6.50;99.90;;;;;;5062781;28;20425;-71
2022/10/09 00:18:40;;;;;;;10.00;4.00;;;6.50;99.90;;;;;;5067369;28;20115;-71
2022/10/09 00:21:16;;;;;;;8.13;3.30;;;6.40;99.90;;;;;;5051802;28;20086;-72
2022/10/09 00:23:42;;;;;;;9.38;3.08;;;6.40;99.90;;;;;;5069975;28;20132;-72
2022/10/09 00:26:08;;;;;;;7.65;3.50;;;6.40;99.90;;;;;;5069967;28;20036;-72
2022/10/09 00:28:33;;;;;;;10.77;3.85;;;6.30;99.90;;;;;;5065265;28;20029;-72
2022/10/09 00:31:02;;;;;;;7.15;3.70;;;6.30;99.90;;;;;;5067799;28;20016;-71
2022/10/09 00:33:28;;;;;;;12.60;3.92;;;6.20;99.90;;;;;;5069971;28;20024;-72
2022/10/09 00:35:53;;;;;;;12.23;4.30;;;6.10;99.90;;;;;;5073265;28;20037;-71
2022/10/09 00:38:19;;;;;;;7.32;4.55;;;6.00;99.90;;;;;;5083964;28;20032;-72
2022/10/09 00:40:44;;;;;;;9.20;3.90;;;6.00;99.90;;;;;;5070211;28;20617;-71
2022/10/09 00:43:19;;;;;;;8.30;3.88;;;6.00;99.90;;;;;;5076373;28;20032;-72
2022/10/09 00:45:54;;;;;;;8.48;3.58;;;6.10;99.90;;;;;;5045400;28;20094;-71
2022/10/09 00:48:21;;;;;;;10.05;3.80;;;6.00;99.90;;;;;;5073315;28;20020;-72
2022/10/09 00:50:53;;;;;;;10.20;3.78;;;6.00;99.90;;;;;;5068977;28;20032;-72
2022/10/09 00:53:21;;;;;;;7.13;3.15;;;6.00;99.90;;;;;;5069490;28;20036;-71
2022/10/09 00:55:47;;;;;;;9.32;3.70;;;6.00;99.90;;;;;;5068948;28;20040;-72
2022/10/09 00:58:13;;;;;;;5.88;3.28;;;6.00;99.90;;;;;;5068732;28;20035;-72
2022/10/09 01:00:39;;;;;;;7.03;3.33;;;6.10;99.90;;;;;;5069243;28;20040;-70
2022/10/09 01:03:05;;;;;;;6.65;2.58;;;6.00;99.90;;;;;;5050929;28;20498;-71
2022/10/09 01:05:40;;;;;;;6.25;3.38;;;6.00;99.90;;;;;;5067445;28;20029;-72
2022/10/09 01:08:21;;;;;;;5.57;3.28;;;5.90;99.90;;;;;;5058410;28;20044;-70
2022/10/09 01:11:08;;;;;;;4.82;2.83;;;5.80;99.90;;;;;;5068949;28;20048;-72
2022/10/09 01:13:40;;;;;;;5.20;2.70;;;5.80;99.90;;;;;;5050654;28;20045;-71
2022/10/09 01:16:22;;;;;;;6.93;3.60;;;5.80;99.90;;;;;;5048303;28;20498;-72
2022/10/09 01:19:05;;;;;;;8.07;3.95;;;5.80;99.90;;;;;;5054606;28;20440;-71
2022/10/09 01:21:37;;;;;;;7.43;4.10;;;5.80;99.90;;;;;;5065456;28;20143;-72
2022/10/09 01:24:45;;;;;;;9.38;4.88;;;5.90;99.90;;;;;;5073580;28;20040;-72
2022/10/09 01:27:18;;;;;;;11.05;4.88;;;5.90;99.90;;;;;;5000513;28;20032;-71
2022/10/09 01:29:49;;;;;;;9.13;4.97;;;5.90;99.90;;;;;;5001547;28;20111;-70
2022/10/09 01:32:19;;;;;;;8.48;5.03;;;5.80;99.90;;;;;;5014566;28;20033;-71
2022/10/09 01:34:47;;;;;;;9.05;4.75;;;5.80;99.90;;;;;;5005335;28;20052;-70
2022/10/09 01:37:15;;;;;;;15.02;5.78;;;5.80;99.90;;;;;;5014234;28;20034;-72
2022/10/09 01:39:43;;;;;;;12.23;5.93;;;5.80;99.90;;;;;;5005971;28;20116;-70
2022/10/09 01:42:11;;;;;;;12.98;5.07;;;5.80;99.90;;;;;;5007174;28;20076;-70
2022/10/09 01:44:37;;;;;;;21.25;6.75;;;5.70;99.90;;;;;;5011164;28;20428;-70
2022/10/09 01:47:04;;;;;;;15.65;6.38;;;5.70;99.90;;;;;;5021788;28;20045;-71
2022/10/09 01:49:51;;;;;;;14.02;6.57;;;5.70;99.90;;;;;;5002215;28;20042;-70
2022/10/09 01:52:54;;;;;;;13.73;6.03;;;5.70;99.90;;;;;;5013879;28;20068;-70
2022/10/09 01:55:41;;;;;;;20.90;7.40;;;5.60;99.90;;;;;;4970332;28;20054;-72
2022/10/09 01:58:32;;;;;;;16.55;8.00;;;5.60;99.90;;;;;;4972232;28;20046;-71
2022/10/09 02:01:06;;;;;;;14.60;7.00;;;5.60;99.90;;;;;;4980061;28;20583;-71
2022/10/09 02:03:33;;;;;;;12.68;6.75;;;5.60;99.90;;;;;;4970989;28;20043;-70
2022/10/09 02:06:01;;;;;;;18.70;7.22;;;5.60;99.90;;;;;;4957070;28;20035;-70
2022/10/09 02:08:29;;;;;;;14.70;6.22;;;5.60;99.90;;;;;;4978498;28;20035;-71
2022/10/09 02:10:57;;;;;;;15.75;6.85;;;5.60;99.90;;;;;;4976607;28;20102;-70
2022/10/09 02:13:23;;;;;;;12.45;5.80;;;5.60;99.90;;;;;;4979886;28;20547;-69
2022/10/09 02:15:53;;;;;;;13.27;6.50;;;5.70;99.90;;;;;;4984463;28;20054;-72
2022/10/09 02:18:32;;;;;;;15.35;5.50;;;5.70;99.90;;;;;;4985283;28;20501;-70
2022/10/09 02:21:05;;;;;;;9.90;4.57;;;5.70;99.90;;;;;;4978848;28;20035;-72
2022/10/09 02:23:33;;;;;;;11.27;5.30;;;5.60;99.90;;;;;;4978497;28;20093;-71
2022/10/09 02:25:59;;;;;;;9.68;4.78;;;5.60;99.90;;;;;;4976663;28;20088;-71
2022/10/09 02:28:25;;;;;;;10.43;4.80;;;5.60;99.90;;;;;;4982316;28;20038;-71
2022/10/09 02:31:23;;;;;;;8.75;4.50;;;5.60;99.90;;;;;;5081632;28;20389;-71
2022/10/09 02:34:04;;;;;;;8.68;5.22;;;5.50;99.90;;;;;;5070298;28;20575;-71
2022/10/09 02:36:31;;;;;;;10.73;4.90;;;5.40;99.90;;;;;;5072210;28;20032;-71
2022/10/09 02:38:57;;;;;;;12.73;5.47;;;5.40;99.90;;;;;;5070927;28;20039;-72
2022/10/09 02:41:24;;;;;;;10.52;5.30;;;5.40;99.90;;;;;;5065433;28;20144;-71
2022/10/09 02:43:50;;;;;;;9.18;4.50;;;5.30;99.90;;;;;;5069685;28;20029;-71
2022/10/09 02:46:15;;;;;;;9.77;5.30;;;5.30;99.90;;;;;;5072069;28;20042;-71
2022/10/09 02:48:42;;;;;;;12.10;5.70;;;5.30;99.90;;;;;;5073444;28;20040;-71
2022/10/09 02:51:07;;;;;;;14.85;6.63;;;5.20;99.90;;;;;;5077098;28;20028;-71
2022/10/09 02:53:34;;;;;;;12.40;6.80;;;5.20;99.90;;;;;;5080314;28;20512;-70
2022/10/09 02:55:59;;;;;;;13.23;5.65;;;5.20;99.90;;;;;;5086000;28;20046;-71
2022/10/09 02:58:25;;;;;;;14.05;5.80;;;5.20;99.90;;;;;;5078195;28;20024;-71
2022/10/09 03:00:52;;;;;;;8.63;4.88;;;5.10;99.90;;;;;;5087834;28;20036;-70
2022/10/09 03:03:19;;;;;;;13.48;6.38;;;5.10;99.90;;;;;;5071249;28;20039;-71
2022/10/09 03:05:45;;;;;;;14.40;5.70;;;5.10;99.90;;;;;;5075912;28;20040;-70
2022/10/09 03:08:11;;;;;;;10.50;5.57;;;5.10;99.90;;;;;;5069170;28;20059;-71
2022/10/09 03:10:38;;;;;;;12.05;5.18;;;5.10;99.90;;;;;;5082960;28;20066;-71
2022/10/09 03:13:04;;;;;;;12.05;5.68;;;5.10;99.90;;;;;;5074407;28;20379;-70
2022/10/09 03:15:36;;;;;;;11.98;4.53;;;5.10;99.90;;;;;;5080630;28;20153;-70
2022/10/09 03:18:02;;;;;;;9.85;4.47;;;5.10;99.90;;;;;;5072314;28;20028;-71
2022/10/09 03:20:31;;;;;;;9.10;4.50;;;5.00;99.90;;;;;;5066790;28;20032;-71
2022/10/09 03:22:57;;;;;;;9.20;4.10;;;4.90;99.90;;;;;;5080347;28;20052;-72
2022/10/09 03:25:22;;;;;;;8.55;4.43;;;4.90;99.90;;;;;;5085336;28;20747;-71
2022/10/09 03:27:48;;;;;;;9.32;4.55;;;4.90;99.90;;;;;;5075646;28;20031;-72
2022/10/09 03:30:14;;;;;;;9.20;4.47;;;4.80;99.90;;;;;;5084072;28;20028;-72
2022/10/09 03:32:39;;;;;;;8.65;4.50;;;4.70;99.90;;;;;;5076220;28;20040;-72
2022/10/09 03:35:06;;;;;;;9.55;4.22;;;4.70;99.90;;;;;;5081268;28;20036;-71
2022/10/09 03:37:31;;;;;;;8.32;4.53;;;4.80;99.90;;;;;;5077744;28;20036;-72
2022/10/09 03:39:57;;;;;;;9.75;4.15;;;4.70;99.90;;;;;;5071301;28;20047;-72
2022/10/09 03:42:23;;;;;;;8.30;3.97;;;4.70;99.90;;;;;;5055170;28;20059;-72
2022/10/09 03:44:49;;;;;;;8.07;4.05;;;4.60;99.90;;;;;;5077754;28;20063;-71
2022/10/09 03:47:14;;;;;;;8.68;4.20;;;4.60;99.90;;;;;;5072439;28;20589;-71
2022/10/09 03:49:40;;;;;;;9.18;4.18;;;4.60;99.90;;;;;;5073390;28;20044;-71
2022/10/09 03:52:06;;;;;;;10.32;4.03;;;4.60;99.90;;;;;;5069978;28;20028;-71
2022/10/09 03:54:32;;;;;;;7.35;4.28;;;4.60;99.90;;;;;;5070219;28;20594;-71
2022/10/09 03:56:58;;;;;;;8.73;4.70;;;4.60;99.90;;;;;;5075614;28;20212;-72
2022/10/09 03:59:23;;;;;;;6.78;4.05;;;4.60;99.90;;;;;;5060455;28;20527;-72
2022/10/09 04:01:49;;;;;;;14.80;6.55;;;4.60;99.90;;;;;;5052418;28;20020;-73
2022/10/09 04:04:15;;;;;;;11.00;5.57;;;4.60;99.90;;;;;;5067026;28;20140;-72
2022/10/09 04:06:41;;;;;;;9.80;4.93;;;4.60;99.90;;;;;;5035415;28;20127;-72
2022/10/09 04:09:07;;;;;;;8.88;5.05;;;4.60;99.90;;;;;;5055983;28;20467;-71
2022/10/09 04:11:32;;;;;;;10.23;5.15;;;4.60;99.90;;;;;;5058002;28;20665;-72
2022/10/09 04:13:58;;;;;;;9.57;4.63;;;4.60;99.90;;;;;;5051715;28;20402;-72
2022/10/09 04:16:24;;;;;;;11.30;4.80;;;4.60;99.90;;;;;;5069785;28;20043;-72
2022/10/09 04:18:49;;;;;;;7.05;4.47;;;4.60;99.90;;;;;;5051934;28;20024;-72
2022/10/09 04:21:15;;;;;;;10.32;4.57;;;4.50;99.90;;;;;;5069804;28;20039;-70
2022/10/09 04:23:41;;;;;;;10.18;4.47;;;4.50;99.90;;;;;;5069748;28;20368;-71
2022/10/09 04:26:06;;;;;;;8.73;4.18;;;4.50;99.90;;;;;;5069730;28;20036;-71
2022/10/09 04:28:32;;;;;;;9.27;4.90;;;4.50;99.90;;;;;;5083237;28;20481;-72
2022/10/09 04:30:58;;;;;;;10.63;4.40;;;4.50;99.90;;;;;;5076713;28;20482;-71
2022/10/09 04:33:26;;;;;;;8.65;4.45;;;4.50;99.90;;;;;;5069592;28;20044;-71
2022/10/09 04:35:53;;;;;;;9.20;4.57;;;4.40;99.90;;;;;;5074424;28;20039;-72
2022/10/09 04:38:19;;;;;;;9.43;4.85;;;4.40;99.90;;;;;;5074387;28;20119;-70
2022/10/09 04:41:04;;;;;;;10.73;5.38;;;4.40;99.90;;;;;;5078597;28;20036;-70
2022/10/09 04:43:32;;;;;;;11.15;4.90;;;4.40;99.90;;;;;;5078345;28;20082;-71
2022/10/09 04:45:58;;;;;;;8.98;4.45;;;4.40;99.90;;;;;;5070539;28;20626;-72
2022/10/09 04:48:24;;;;;;;8.38;4.20;;;4.30;99.90;;;;;;5050873;28;20029;-71
2022/10/09 04:50:50;;;;;;;11.63;4.90;;;4.30;99.90;;;;;;5068254;28;20765;-73
2022/10/09 04:53:16;;;;;;;11.68;4.95;;;4.20;99.90;;;;;;5050638;28;20043;-71
2022/10/09 04:55:43;;;;;;;9.70;4.35;;;4.30;99.90;;;;;;5072435;28;20040;-72
2022/10/09 04:58:10;;;;;;;8.93;3.70;;;4.30;99.90;;;;;;5072508;28;20051;-71
2022/10/09 05:00:44;;;;;;;7.68;3.72;;;4.30;99.90;;;;;;5072216;28;20028;-72
2022/10/09 05:03:10;;;;;;;7.70;3.47;;;4.40;99.90;;;;;;5068386;28;20111;-71
2022/10/09 05:05:35;;;;;;;7.10;3.30;;;4.40;99.90;;;;;;5067202;28;20566;-71
2022/10/09 05:08:01;;;;;;;5.85;3.63;;;4.40;99.90;;;;;;5059086;28;20063;-71
2022/10/09 05:10:27;;;;;;;6.00;3.13;;;4.40;99.90;;;;;;5048853;28;20599;-71
2022/10/09 05:12:52;;;;;;;8.23;3.50;;;4.30;99.90;;;;;;5048703;28;20033;-70
2022/10/09 05:15:18;;;;;;;7.63;3.70;;;4.30;99.90;;;;;;5064265;28;20047;-72
2022/10/09 05:17:44;;;;;;;7.00;3.10;;;4.30;99.90;;;;;;5068874;28;20036;-71
2022/10/09 05:20:10;;;;;;;7.03;3.30;;;4.30;99.90;;;;;;5068546;28;20032;-70
2022/10/09 05:22:35;;;;;;;8.13;3.75;;;4.30;99.90;;;;;;5068625;28;20093;-72
2022/10/09 05:25:01;;;;;;;6.90;3.53;;;4.30;99.90;;;;;;5064361;28;20032;-72
2022/10/09 05:27:26;;;;;;;7.28;3.72;;;4.30;99.90;;;;;;5047375;28;20116;-71
2022/10/09 05:29:52;;;;;;;9.77;3.75;;;4.20;99.90;;;;;;5052009;28;20482;-71
2022/10/09 05:32:18;;;;;;;8.25;3.88;;;4.20;99.90;;;;;;5073063;28;20028;-71
2022/10/09 05:34:43;;;;;;;9.80;3.95;;;4.30;99.90;;;;;;5064400;28;20047;-72
2022/10/09 05:37:09;;;;;;;9.98;4.28;;;4.40;99.90;;;;;;5068280;28;20181;-72
2022/10/09 05:39:34;;;;;;;9.38;3.83;;;4.50;99.90;;;;;;5050401;28;20028;-70
2022/10/09 05:42:01;;;;;;;10.95;4.15;;;4.50;99.90;;;;;;5071295;28;20033;-72
2022/10/09 05:44:26;;;;;;;8.68;3.45;;;4.50;99.90;;;;;;5067298;28;20510;-71
2022/10/09 05:46:52;;;;;;;9.25;4.25;;;4.60;99.90;;;;;;5068170;28;20086;-71
2022/10/09 05:49:18;;;;;;;26.63;4.30;;;4.70;99.90;;;;;;5067780;28;20538;-71
2022/10/09 05:51:44;;;;;;;7.80;3.88;;;4.70;99.90;;;;;;5075183;28;20040;-70
2022/10/09 05:54:14;;;;;;;11.20;4.00;;;4.90;99.90;;;;;;5082169;28;20734;-72
2022/10/09 05:56:40;;;;;;;8.75;3.85;;;5.00;99.90;;;;;;5071471;28;20112;-73
2022/10/09 05:59:07;;;;;;;11.20;3.63;;;5.20;99.90;;;;;;5083614;28;20067;-72
2022/10/09 06:01:36;;;;;;;10.57;3.70;;;5.40;99.90;;;;;;5063142;28;20033;-72
2022/10/09 06:04:02;;;;;;;10.30;3.93;;;5.50;99.90;;;;;;5057291;28;20033;-71
2022/10/09 06:06:31;;;;;;;11.88;3.55;;;5.60;99.90;;;;;;5074558;28;20025;-71
2022/10/09 06:08:58;;;;;;;9.47;3.77;;;5.70;99.90;;;;;;5071047;28;20033;-71
2022/10/09 06:11:27;;;;;;;7.32;3.40;;;5.70;99.90;;;;;;5079536;28;20284;-71
2022/10/09 06:13:54;;;;;;;8.90;3.25;;;5.70;99.90;;;;;;5084124;28;20036;-71
2022/10/09 06:16:23;;;;;;;12.05;4.63;;;5.60;99.90;;;;;;5080761;28;20119;-71
2022/10/09 06:18:49;;;;;;;8.82;3.67;;;5.60;99.90;;;;;;5067441;28;20669;-72
2022/10/09 06:21:15;;;;;;;8.45;3.42;;;5.60;99.90;;;;;;5076120;28;20024;-71
2022/10/09 06:23:41;;;;;;;7.07;3.83;;;5.60;99.90;;;;;;5067473;28;20033;-70
2022/10/09 06:26:10;;;;;;;9.95;3.83;;;5.50;99.90;;;;;;5067762;28;20055;-72
2022/10/09 06:28:36;;;;;;;8.50;3.17;;;5.30;99.90;;;;;;5077540;28;20072;-72
2022/10/09 06:31:23;;;;;;;7.13;3.60;;;5.20;99.90;;;;;;5049405;28;20102;-71
2022/10/09 06:33:50;;;;;;;7.00;3.17;;;5.10;99.90;;;;;;5061532;28;20147;-71
2022/10/09 06:36:27;;;;;;;6.85;3.08;;;5.00;99.90;;;;;;5056074;28;20136;-71
2022/10/09 06:38:53;;;;;;;6.72;2.85;;;4.90;99.90;;;;;;5063319;28;20036;-71
2022/10/09 06:41:24;;;;;;;7.63;3.10;;;4.90;99.90;;;;;;5061012;28;20771;-72
2022/10/09 06:43:58;;;;;;;6.47;2.85;;;4.90;99.90;;;;;;5046568;28;20127;-71
2022/10/09 06:46:27;;;;;;;8.07;3.03;;;4.90;99.90;;;;;;5067781;28;20063;-72
2022/10/09 06:48:53;;;;;;;7.63;3.53;;;4.90;99.90;;;;;;5083172;28;20048;-72
2022/10/09 06:51:20;;;;;;;7.28;2.83;;;4.90;99.90;;;;;;5067406;28;20052;-72
2022/10/09 06:53:52;;;;;;;9.85;3.40;;;5.00;99.90;;;;;;5075823;28;20024;-72
2022/10/09 06:56:20;;;;;;;7.68;2.92;;;5.00;99.90;;;;;;5066330;28;20058;-71
2022/10/09 06:58:46;;;;;;;10.30;3.30;;;5.10;99.90;;;;;;5068754;28;20032;-72
2022/10/09 07:01:22;;;;;;;7.30;3.53;;;5.10;99.90;;;;;;5066996;28;20038;-72
2022/10/09 07:03:53;;;;;;;10.60;3.40;;;5.20;99.90;;;;;;5071057;28;20126;-72
2022/10/09 07:06:22;;;;;;;8.48;3.38;;;5.40;99.90;;;;;;5067309;28;20040;-71
2022/10/09 07:09:02;;;;;;;10.73;3.45;;;5.50;99.90;;;;;;5057651;28;20064;-71
2022/10/09 07:11:34;;;;;;;7.30;2.88;;;5.60;99.90;;;;;;5060063;28;21742;-72
2022/10/09 07:14:02;;;;;;;8.02;3.20;;;5.70;99.90;;;;;;5066243;28;20051;-71
2022/10/09 07:16:47;;;;;;;6.38;3.42;;;5.80;99.90;;;;;;5066507;28;20025;-70
2022/10/09 07:19:16;;;;;;;7.85;3.30;;;5.90;99.90;;;;;;5065836;28;20103;-71
2022/10/09 07:21:43;;;;;;;9.15;3.83;;;6.00;99.90;;;;;;5058040;28;20040;-73
2022/10/09 07:24:10;;;;;;;6.63;3.25;;;6.20;99.90;;;;;;5066135;28;20093;-71
2022/10/09 07:26:38;;;;;;;8.48;3.28;;;6.30;99.90;;;;;;5044342;28;20041;-71
2022/10/09 07:29:06;;;;;;;6.35;3.22;;;6.30;99.90;;;;;;5061620;28;20033;-71
2022/10/09 07:31:31;;;;;;;7.13;3.30;;;6.40;99.90;;;;;;5059821;28;20071;-71
2022/10/09 07:33:58;;;;;;;5.20;2.83;;;6.50;99.90;;;;;;5043015;28;20032;-72
2022/10/09 07:36:24;;;;;;;8.93;3.38;;;6.70;99.90;;;;;;5064675;28;20130;-72
2022/10/09 07:38:57;;;;;;;7.45;2.95;;;6.80;99.90;;;;;;5068005;28;20055;-72
2022/10/09 07:41:26;;;;;;;7.95;3.63;;;7.00;99.90;;;;;;5069207;28;20032;-72
2022/10/09 07:43:52;;;;;;;6.53;2.77;;;7.20;99.90;;;;;;5065381;28;20043;-73
2022/10/09 07:46:19;;;;;;;7.43;2.85;;;7.50;99.90;;;;;;5059100;28;20033;-71
2022/10/09 07:48:46;;;;;;;7.80;3.17;;;7.70;99.90;;;;;;5064051;28;20175;-72
2022/10/09 07:51:26;;;;;;;7.90;2.90;;;7.90;99.90;;;;;;5060189;28;20044;-73
2022/10/09 07:53:52;;;;;;;8.15;2.53;;;8.20;99.90;;;;;;5058642;28;20028;-72
2022/10/09 07:56:25;;;;;;;8.93;2.20;;;8.50;99.90;;;;;;5057656;28;20054;-71
2022/10/09 07:58:53;;;;;;;10.43;2.33;;;8.80;99.90;;;;;;5069796;28;20048;-73
2022/10/09 08:01:19;;;;;;;7.78;2.10;;;9.20;99.90;;;;;;5069609;28;20032;-72
2022/10/09 08:03:46;;;;;;;6.63;1.80;;;9.60;99.90;;;;;;5066499;28;20112;-73
2022/10/09 08:06:11;;;;;;;5.47;1.75;;;9.90;99.90;;;;;;5050921;28;20042;-72
2022/10/09 08:08:37;;;;;;;7.32;2.13;;;10.20;99.90;;;;;;5069747;28;20040;-72
2022/10/09 08:11:11;;;;;;;7.18;1.83;;;10.50;99.90;;;;;;5072963;28;20105;-72
2022/10/09 08:13:37;;;;;;;6.88;2.00;;;10.80;99.90;;;;;;5062902;28;20125;-73
2022/10/09 08:16:04;;;;;;;5.93;1.85;;;11.10;99.90;;;;;;5075089;28;20055;-72
2022/10/09 08:18:29;;;;;;;6.55;1.77;;;11.30;99.90;;;;;;5071410;28;20054;-73
2022/10/09 08:21:00;;;;;;;7.10;1.70;;;11.50;99.90;;;;;;5057627;28;20464;-73
2022/10/09 08:23:26;;;;;;;5.45;1.50;;;11.70;99.90;;;;;;5063677;28;20032;-73
2022/10/09 08:25:52;;;;;;;3.97;1.38;;;11.80;99.90;;;;;;5071737;28;20107;-73
2022/10/09 08:28:18;;;;;;;5.53;1.23;;;12.00;99.90;;;;;;5070704;28;20046;-72
2022/10/09 08:30:43;;;;;;;7.38;1.67;;;12.20;99.90;;;;;;5044358;28;20036;-73
2022/10/09 08:33:09;;;;;;;5.45;1.70;;;12.40;99.90;;;;;;5065733;28;20153;-71
2022/10/09 08:35:35;;;;;;;10.10;1.85;;;12.60;99.90;;;;;;5060420;28;20037;-71
2022/10/09 08:38:00;;;;;;;4.32;1.30;;;12.80;99.90;;;;;;5053855;28;20036;-72
2022/10/09 08:40:41;;;;;;;8.23;1.40;;;13.00;99.90;;;;;;5042125;28;20028;-71
2022/10/09 08:43:13;;;;;;;7.80;1.73;;;13.30;99.90;;;;;;5054348;28;20029;-71
2022/10/09 08:45:41;;;;;;;4.40;1.00;;;13.60;99.90;;;;;;5054017;28;20066;-72
2022/10/09 08:48:13;;;;;;;7.18;1.20;;;14.00;99.90;;;;;;5053009;28;20031;-73
2022/10/09 08:50:45;;;;;;;5.38;1.05;;;14.40;99.90;;;;;;5065294;28;20120;-73
2022/10/09 08:53:26;;;;;;;4.75;0.90;;;14.70;99.90;;;;;;5061940;28;20028;-71
2022/10/09 08:56:02;;;;;;;7.70;1.23;;;15.00;99.90;;;;;;5063946;28;20076;-72
2022/10/09 08:58:33;;;;;;;7.25;1.10;;;15.30;99.90;;;;;;5067275;28;20023;-71
2022/10/09 09:01:09;;;;;;;5.47;1.05;;;15.50;99.90;;;;;;5059830;28;20036;-73
2022/10/09 09:03:56;;;;;;;7.03;1.02;;;15.70;99.90;;;;;;5058393;28;20040;-72
2022/10/09 09:06:55;;;;;;;5.20;1.00;;;15.90;99.90;;;;;;5035452;28;20032;-72
2022/10/09 09:09:38;;;;;;;5.35;0.98;;;16.10;99.90;;;;;;5049458;28;20122;-73
2022/10/09 09:12:07;;;;;;;3.05;0.77;;;16.30;99.90;;;;;;5047841;28;20039;-71
2022/10/09 09:14:57;;;;;;;7.68;1.30;;;16.40;98.90;;;;;;5049240;28;20151;-72
2022/10/09 09:17:47;;;;;;;6.95;1.20;;;16.50;98.90;;;;;;5055485;28;20035;-77
2022/10/09 09:20:19;;;;;;;;;;;16.60;99.50;;;;;;5054526;28;20028;-75
2022/10/09 09:22:48;;;;;;;5.97;1.08;;;16.70;97.10;;;;;;5028816;28;20001;-73
2022/10/09 09:25:21;;;;;;;9.90;1.13;;;16.80;96.00;;;;;;5048004;28;20111;-73
2022/10/09 09:27:47;;;;;;;5.75;1.40;;;16.90;95.70;;;;;;5044002;28;20351;-71
2022/10/09 09:30:28;;;;;;;6.13;1.05;;;17.00;93.00;;;;;;5058604;28;20471;-73
2022/10/09 09:33:12;;;;;;;5.28;1.00;;;16.90;92.40;;;;;;5056538;28;20031;-72
2022/10/09 09:36:00;;;;;;;5.85;0.75;;;16.90;92.90;;;;;;5057000;28;20040;-73
2022/10/09 09:38:26;;;;;;;5.07;1.23;;;17.00;91.30;;;;;;5055785;28;20037;-74
2022/10/09 09:40:52;;;;;;;8.88;1.10;;;17.00;92.10;;;;;;5053261;28;20098;-73
2022/10/09 09:43:23;;;;;;;6.82;1.25;;;17.20;91.30;;;;;;5056577;28;20036;-73
2022/10/09 09:45:54;;;;;;;7.53;1.20;;;17.20;91.70;;;;;;5049760;28;20090;-73
2022/10/09 09:48:25;;;;;;;5.97;1.27;;;17.20;93.10;;;;;;5054263;28;20044;-73
2022/10/09 09:50:52;;;;;;;6.85;1.02;;;17.30;91.80;;;;;;5049669;28;20031;-73
2022/10/09 09:53:18;;;;;;;6.38;1.13;;;17.30;87.60;;;;;;5056332;28;20036;-72
2022/10/09 09:55:43;;;;;;;6.25;1.15;;;17.30;89.10;;;;;;5062835;28;20044;-73
2022/10/09 09:58:16;;;;;;;9.32;1.25;;;17.40;83.80;;;;;;5062827;28;20028;-73
2022/10/09 10:00:56;;;;;;;6.18;1.30;;;17.50;83.80;;;;;;5066467;28;20107;-72
2022/10/09 10:03:21;;;;;;;8.57;1.15;;;17.60;82.10;;;;;;5045567;28;20391;-72
2022/10/09 10:05:47;;;;;;;5.78;1.10;;;17.80;81.90;;;;;;5030252;28;20037;-72
2022/10/09 10:08:28;;;;;;;8.13;1.00;;;18.00;80.20;;;;;;5035171;28;20025;-72
2022/10/09 10:10:57;;;;;;;4.47;1.25;;;18.00;80.20;;;;;;5049417;28;20135;-72
2022/10/09 10:13:36;;;;;;;9.48;2.00;;;18.00;80.80;;;;;;5055334;28;20393;-72
2022/10/09 10:16:04;;;;;;;5.78;1.50;;;17.90;80.30;;;;;;5051830;28;20123;-73
2022/10/09 10:18:36;;;;;;;5.65;1.00;;;18.20;79.60;;;;;;5052286;28;20078;-73
2022/10/09 10:21:11;;;;;;;7.43;1.50;;;18.40;79.10;;;;;;5053045;28;20387;-73
2022/10/09 10:23:48;;;;;;;6.78;1.10;;;18.50;77.00;;;;;;5058907;28;20028;-71
2022/10/09 10:26:22;;;;;;;4.55;0.90;;;18.50;75.40;;;;;;5054697;28;20062;-73
2022/10/09 10:29:18;;;;;;;6.80;1.38;;;18.50;73.80;;;;;;5056068;28;20094;-72
2022/10/09 10:32:13;;;;;;;5.20;0.95;;;18.40;69.80;;;;;;5046629;28;20822;-72
2022/10/09 10:34:49;;;;;;;5.38;1.00;;;18.30;70.30;;;;;;5036855;28;20048;-74
2022/10/09 10:37:28;;;;;;;6.50;1.17;;;18.10;73.00;;;;;;5053252;28;20033;-72
2022/10/09 10:40:04;;;;;;;4.95;0.90;;;18.20;73.70;;;;;;5048373;28;20083;-73
2022/10/09 10:42:41;;;;;;;4.90;1.42;;;18.50;75.60;;;;;;5052027;28;20036;-72
2022/10/09 10:45:23;;;;;;;4.80;0.93;;;18.90;69.90;;;;;;5057866;28;20043;-73
2022/10/09 10:47:53;;;;;;;7.80;1.27;;;19.60;69.60;;;;;;5041774;28;20036;-73
2022/10/09 10:50:20;;;;;;;8.30;1.73;;;21.40;65.30;;;;;;5043996;28;20039;-73
2022/10/09 10:53:10;;;;;;;6.20;1.00;;;21.60;59.00;;;;;;5054693;28;20033;-73
2022/10/09 10:55:55;;;;;;;8.10;1.05;;;20.80;61.10;;;;;;5050767;28;20040;-72
2022/10/09 10:58:40;;;;;;;4.47;1.13;;;20.20;61.90;;;;;;5058413;28;20033;-72
2022/10/09 11:01:44;;;;;;;5.93;0.98;;;20.40;61.90;;;;;;5048816;28;20024;-73
2022/10/09 11:04:22;;;;;;;7.03;1.10;;;21.60;56.50;;;;;;5055292;28;20048;-74
2022/10/09 11:07:11;;;;;;;6.78;1.40;;;22.10;55.20;;;;;;5056645;28;20028;-71
2022/10/09 11:09:59;;;;;;;7.55;1.48;;;21.10;56.40;;;;;;5050298;28;20113;-73
2022/10/09 11:12:49;;;;;;;7.30;1.20;;;20.40;58.60;;;;;;5042567;28;20082;-73
2022/10/09 11:15:44;;;;;;;7.65;1.38;;;19.80;60.00;;;;;;5060167;28;20068;-73
2022/10/09 11:18:36;;;;;;;6.90;0.93;;;19.40;61.50;;;;;;5053162;28;20508;-71
2022/10/09 11:21:23;;;;;;;4.68;1.15;;;19.00;62.30;;;;;;5051532;28;20029;-73
2022/10/09 11:23:59;;;;;;;5.75;1.10;;;18.60;64.40;;;;;;5058621;28;20021;-73
2022/10/09 11:26:44;;;;;;;5.55;1.00;;;18.40;65.80;;;;;;5051336;28;20040;-73
2022/10/09 11:29:18;;;;;;;5.30;1.10;;;18.40;65.60;;;;;;5053629;28;20518;-72
2022/10/09 11:31:48;;;;;;;6.75;0.90;;;18.40;66.30;;;;;;5052430;28;20842;-72
2022/10/09 11:34:20;;;;;;;6.45;1.00;;;18.40;66.30;;;;;;5049841;28;20033;-73
2022/10/09 11:36:46;;;;;;;7.47;0.90;;;18.30;67.30;;;;;;5055305;28;20386;-73
2022/10/09 11:39:17;;;;;;;6.68;1.38;;;18.30;66.20;;;;;;5054326;28;20029;-73
2022/10/09 11:41:47;;;;;;;5.32;0.93;;;18.30;66.60;;;;;;5052030;28;20028;-73
2022/10/09 11:44:48;;;;;;;5.30;1.10;;;18.20;67.50;;;;;;5050785;28;20100;-73
2022/10/09 11:47:19;;;;;;;5.05;0.90;;;18.20;66.80;;;;;;5050160;28;20029;-74
2022/10/09 11:50:04;;;;;;;6.90;1.10;;;18.20;65.70;;;;;;5050655;28;20490;-73
2022/10/09 11:53:04;;;;;;;5.45;0.90;;;18.10;66.50;;;;;;5064329;28;20540;-72
2022/10/09 11:55:32;;;;;;;5.88;1.10;;;18.00;67.00;;;;;;5056237;28;20491;-73
2022/10/09 11:58:23;;;;;;;5.63;1.08;;;17.90;68.20;;;;;;5068136;28;20097;-72
2022/10/09 12:00:54;;;;;;;5.22;0.82;;;17.90;67.30;;;;;;5055168;28;20086;-72
2022/10/09 12:03:34;;;;;;;6.20;1.30;;;17.90;66.50;;;;;;5053282;28;20028;-74
2022/10/09 12:06:15;;;;;;;7.10;1.10;;;17.90;66.90;;;;;;5056032;28;20033;-72
2022/10/09 12:08:53;;;;;;;4.45;0.98;;;17.90;66.50;;;;;;5059956;28;20035;-73
2022/10/09 12:11:21;;;;;;;6.28;1.10;;;17.80;67.20;;;;;;5065955;28;20098;-72
2022/10/09 12:13:58;;;;;;;3.60;0.75;;;17.70;66.60;;;;;;5053671;28;20032;-72
2022/10/09 12:16:38;;;;;;;4.35;0.80;;;17.70;66.10;;;;;;5053466;28;20033;-74
2022/10/09 12:19:24;;;;;;;;;;;17.70;69.10;;;;;;5055080;28;20033;-72
2022/10/09 12:22:12;;;;;;;6.40;1.20;;;17.80;67.80;;;;;;5042692;28;19919;-71
2022/10/09 12:24:41;;;;;;;5.67;0.80;;;17.90;69.50;;;;;;5044157;28;20545;-71
2022/10/09 12:27:14;;;;;;;5.38;1.05;;;17.80;65.80;;;;;;5037596;28;20650;-71
2022/10/09 12:29:44;;;;;;;7.68;1.05;;;17.80;65.60;;;;;;5050921;28;20037;-73
2022/10/09 12:32:31;;;;;;;8.88;1.35;;;17.80;68.90;;;;;;5057457;28;20111;-72
2022/10/09 12:34:57;;;;;;;6.57;0.90;;;18.60;65.00;;;;;;5066963;28;20433;-72
2022/10/09 12:37:35;;;;;;;5.40;1.10;;;18.70;62.60;;;;;;5066245;28;20115;-72
2022/10/09 12:40:14;;;;;;;5.03;0.93;;;18.50;64.60;;;;;;5069641;28;20623;-73
2022/10/09 12:42:41;;;;;;;5.45;0.95;;;18.50;63.40;;;;;;5068827;28;20398;-71
2022/10/09 12:45:19;;;;;;;9.27;1.10;;;18.40;64.20;;;;;;5065818;28;20032;-73
2022/10/09 12:47:45;;;;;;;5.15;1.00;;;18.30;63.40;;;;;;5066949;28;20090;-72
2022/10/09 12:50:31;;;;;;;5.97;1.38;;;18.20;64.80;;;;;;5075842;28;20032;-73
2022/10/09 12:52:59;;;;;;;7.00;1.45;;;18.10;66.20;;;;;;5073127;28;20059;-73
2022/10/09 12:55:42;;;;;;;5.22;1.40;;;18.10;66.30;;;;;;5073298;28;20042;-73
2022/10/09 12:58:19;;;;;;;7.45;2.35;;;18.10;67.30;;;;;;5067487;28;20036;-73
2022/10/09 13:00:48;;;;;;;5.88;1.80;;;18.00;65.20;;;;;;5066527;28;20151;-73
2022/10/09 13:03:25;;;;;;;4.13;1.00;;;18.00;66.50;;;;;;5076733;28;20051;-73
2022/10/09 13:05:51;;;;;;;5.13;1.08;;;18.00;65.20;;;;;;5071108;28;20354;-72
2022/10/09 13:08:47;;;;;;;4.05;0.80;;;17.90;66.50;;;;;;5073788;28;20050;-74
2022/10/09 13:11:28;;;;;;;4.18;0.77;;;17.90;66.40;;;;;;5068865;28;20048;-73
2022/10/09 13:13:54;;;;;;;5.45;0.70;;;17.90;65.40;;;;;;5069118;28;20040;-72